NEODyS-2

Near Earth Objects - Dynamic Site
NEODyS ∴ Observatories ∴ Site 691 ∴ Obs & residuals
Contact »
691  ▹ 
OBSERVATIONS AND RESIDUALS

691-Steward Observatory, Kitt Peak-Spacewatch

Detections | Residuals | Detections & Residuals

[1-200] [201-400] [401-600] [601-800] [801-1000] [1001-1200] [1201-1400] [1401-1600] [1601-1800] [1801-2000] [2001-2200] [2201-2400] [2401-2600] [2601-2800] [2801-3000] [3001-3200] [3201-3400] [3401-3600] [3601-3800] [3801-4000] [4001-4200] [4201-4400] [4401-4600] [4601-4800] [4801-5000] [5001-5200] [5201-5400] [5401-5600] [5601-5800] [5801-6000] [6001-6200] [6201-6400] [6401-6600] [6601-6800] [6801-7000] [7001-7200] [7201-7400] [7401-7600] [7601-7800] [7801-8000] [8001-8200] [8201-8400] [8401-8600] [8601-8800] [8801-9000] [9001-9200] [9201-9400] [9401-9600] [9601-9800] [9801-10000] [10001-10200] [10201-10400] [10401-10600] [10601-10800] [10801-11000] [11001-11200] [11201-11400] [11401-11600] [11601-11800] [11801-12000] [12001-12200] [12201-12400] [12401-12600] [12601-12800] [12801-13000] [13001-13200] [13201-13400] [13401-13600] [13601-13800] [13801-14000] [14001-14200] [14201-14400] [14401-14600] [14601-14800] [14801-15000] [15001-15200] [15201-15400] [15401-15600] [15601-15800] [15801-16000] [16001-16200] [16201-16400] [16401-16600] [16601-16800] [16801-17000] [17001-17200] [17201-17400] [17401-17600] [17601-17800] [17801-18000] [18001-18200] [18201-18400] [18401-18600] [18601-18800] [18801-19000] [19001-19200] [19201-19400] [19401-19600] [19601-19800] [19801-20000] [20001-20200] [20201-20400] [20401-20600] [20601-20800] [20801-21000] [21001-21200] [21201-21400] [21401-21600] [21601-21800] [21801-22000] [22001-22200] [22201-22400] [22401-22600] [22601-22800] [22801-23000] [23001-23200] [23201-23400] [23401-23600] [23601-23800] [23801-24000] [24001-24200] [24201-24400] [24401-24600] [24601-24800] [24801-25000] [25001-25200] [25201-25400] [25401-25600] [25601-25800] [25801-26000] [26001-26200] [26201-26400] [26401-26600] [26601-26800] [26801-27000] [27001-27200] [27201-27400] [27401-27600] [27601-27800] [27801-28000] [28001-28200] [28201-28400] [28401-28600] [28601-28800] [28801-29000] [29001-29200] [29201-29400] [29401-29600] [29601-29800] [29801-30000] [30001-30200] [30201-30400] [30401-30600] [30601-30800] [30801-31000] [31001-31200] [31201-31400] [31401-31600] [31601-31800] [31801-32000] [32001-32200] [32201-32400] [32401-32600] [32601-32800] [32801-33000] [33001-33200] [33201-33400] [33401-33600] [33601-33800] [33801-34000] [34001-34200] [34201-34400] [34401-34600] [34601-34800] [34801-35000] [35001-35200] [35201-35400] [35401-35600] [35601-35800] [35801-36000] [36001-36200] [36201-36400] [36401-36600] [36601-36800] [36801-37000] [37001-37200] [37201-37400] [37401-37600] [37601-37800] [37801-38000] [38001-38200] [38201-38400] [38401-38600] [38601-38800] [38801-39000] [39001-39200] [39201-39400] [39401-39600] [39601-39800] [39801-40000] [40001-40200] [40201-40400] [40401-40600] [40601-40800] [40801-41000] [41001-41200] [41201-41400] [41401-41600] [41601-41800] [41801-42000] [42001-42200] [42201-42400] [42401-42600] [42601-42800] [42801-43000] [43001-43200] [43201-43400] [43401-43600] [43601-43800] [43801-44000] [44001-44200] [44201-44400] [44401-44600] [44601-44800] [44801-45000] [45001-45200] [45201-45400] [45401-45600] [45601-45800] [45801-46000] [46001-46200] [46201-46400] [46401-46600] [46601-46800] [46801-47000] [47001-47200] [47201-47400] [47401-47600] [47601-47800] [47801-48000] [48001-48200] [48201-48400] [48401-48600] [48601-48800] [48801-49000] [49001-49200] [49201-49400] [49401-49600] [49601-49800] [49801-50000] [50001-50200] [50201-50388]

Designation T Tech N Date Right Ascension Declination Apparent Magnitude Star Catalog Site code χ Used A Used M
yr-mo-day precision hr:min:sec precision rms F bias residual deg min sec precision rms F bias residual mag/col rms residual
2018SB3 O C K 2018-09-30.19081 1.000E-05 21:41:42.600 1.500E-01 0.500 F 0.030 0.279 +09° 12' 58.30" 1.000E-01 0.500 F 0.185 0.041 19.1 R 0.70 -1.38 o 691 0.59 Yes Yes
2018SC3 O C K 2018-09-30.19824 1.000E-05 21:40:39.580 1.500E-01 0.500 F -0.040 -0.301 +06° 48' 38.00" 1.000E-01 0.500 F 0.294 -0.131 17.5 R 0.70 -1.83 o 691 0.67 Yes Yes
2018SB3 O C K 2018-09-30.20230 1.000E-05 21:41:48.250 1.500E-01 0.500 F 0.030 -0.371 +09° 13' 15.90" 1.000E-01 0.500 F 0.185 -0.118 18.9 R 0.70 -1.58 o 691 0.82 Yes Yes
2006SF6 O C 2018-09-30.20230 1.000E-05 21:44:18.010 1.500E-01 0.500 F -0.097 0.087 +08° 22' 32.90" 1.000E-01 0.500 F 0.152 0.053 18.6 V 0.70 -0.22 o 691 0.21 Yes Yes
2018SC3 O C K 2018-09-30.20973 1.000E-05 21:40:51.550 1.500E-01 0.500 F -0.040 0.549 +06° 45' 27.70" 1.000E-01 0.500 F 0.294 -1.122 17.2 R 0.70 -2.13 o 691 2.57 Yes No
2006SF6 O C 2018-09-30.21380 1.000E-05 21:44:16.930 1.500E-01 0.500 F -0.097 0.260 +08° 22' 06.50" 1.000E-01 0.500 F 0.152 -0.767 18.1 V 0.70 -0.72 o 691 1.62 Yes Yes
2018SB3 O C K 2018-09-30.21380 1.000E-05 21:41:53.950 1.500E-01 0.500 F 0.030 -0.313 +09° 13' 33.50" 1.000E-01 0.500 F 0.185 -0.147 19.2 R 0.70 -1.28 o 691 0.73 Yes Yes
2018RO5 O C K 2018-09-30.22934 1.000E-05 23:03:35.290 1.500E-01 0.500 F -0.055 0.121 +04° 54' 29.50" 1.000E-01 0.500 F 0.329 -0.029 21.5 R 0.70 0.50 o 691 0.25 Yes Yes
2015TW143 O C K 2018-09-30.23932 1.000E-05 23:19:55.900 1.500E-01 0.500 F -0.258 0.524 -16° 50' 24.80" 1.000E-01 0.500 F 0.214 -0.519 o 691 1.48 Yes No
2018RO5 O C K 2018-09-30.24344 1.000E-05 23:03:33.600 1.500E-01 0.500 F -0.055 -0.433 +04° 54' 20.60" 1.000E-01 0.500 F 0.329 -0.139 21.4 R 0.70 0.40 o 691 0.92 Yes Yes
2015TW143 O C K 2018-09-30.25162 1.000E-05 23:19:55.010 1.500E-01 0.500 F -0.258 0.471 -16° 50' 29.60" 1.000E-01 0.500 F 0.214 0.041 o 691 0.94 Yes No
2018RO5 O C K 2018-09-30.25575 1.000E-05 23:03:32.210 1.500E-01 0.500 F -0.055 0.337 +04° 54' 13.60" 1.000E-01 0.500 F 0.329 0.575 21.7 R 0.70 0.70 o 691 1.34 Yes Yes
2018SQ3 O C K 2018-09-30.26609 1.000E-05 22:31:27.570 1.500E-01 0.500 F 0.007 -0.087 +05° 07' 37.90" 1.000E-01 0.500 F 0.370 -0.254 20.0 R 0.70 -0.18 o 691 0.55 Yes Yes
2018RZ2 O C K 2018-09-30.27247 1.000E-05 22:48:41.860 1.500E-01 0.500 F -0.173 0.091 +18° 17' 55.70" 1.000E-01 0.500 F 0.289 -0.108 21.3 R 0.70 0.65 o 691 0.30 Yes Yes
2018SQ3 O C K 2018-09-30.28837 1.000E-05 22:31:29.420 1.500E-01 0.500 F 0.001 -0.127 +05° 04' 59.60" 1.000E-01 0.500 F 0.194 -0.327 20.9 R 0.70 0.72 o 691 0.72 Yes Yes
2018RZ2 O C K 2018-09-30.29470 1.000E-05 22:48:36.770 1.500E-01 0.500 F -0.173 0.016 +18° 18' 47.60" 1.000E-01 0.500 F 0.289 0.178 20.6 R 0.70 -0.05 o 691 0.38 Yes Yes
2018RZ2 O C K 2018-09-30.31660 1.000E-05 22:48:31.820 1.500E-01 0.500 F -0.173 0.600 +18° 19' 37.80" 1.000E-01 0.500 F 0.289 -0.249 20.8 R 0.70 0.15 o 691 1.41 Yes Yes
2018SF3 O C K 2018-09-30.33648 1.000E-05 23:04:33.260 1.500E-01 0.500 F -0.174 -0.339 +07° 10' 34.80" 1.000E-01 0.500 F 0.302 -0.246 o 691 0.85 Yes No
2018SF3 O C K 2018-09-30.36610 1.000E-05 23:04:21.330 1.500E-01 0.500 F -0.174 0.259 +07° 11' 40.20" 1.000E-01 0.500 F 0.302 0.555 o 691 1.24 Yes No
2018TQ O C K 2018-10-05.12155 1.000E-05 21:34:44.980 1.500E-01 0.500 F -0.076 0.821 -10° 59' 50.00" 1.000E-01 0.500 F 0.350 -0.027 20.4 R 0.70 -0.62 o 691 1.68 Yes Yes
2018TQ O C K 2018-10-05.13058 1.000E-05 21:34:45.570 1.500E-01 0.500 F -0.076 -0.006 -10° 59' 29.80" 1.000E-01 0.500 F 0.350 0.039 21.3 R 0.70 0.28 o 691 0.08 Yes Yes
2018TQ O C K 2018-10-05.13960 1.000E-05 21:34:46.250 1.500E-01 0.500 F -0.076 0.516 -10° 59' 09.70" 1.000E-01 0.500 F 0.350 0.017 21.6 R 0.70 0.58 o 691 1.06 Yes Yes
2018SK3 O C K 2018-10-05.19767 1.000E-05 23:36:02.120 1.500E-01 0.500 F -0.122 -0.081 +25° 18' 46.70" 1.000E-01 0.500 F 0.293 0.160 19.5 R 0.70 0.01 o 691 0.36 Yes Yes
2018SK3 O C K 2018-10-05.20258 1.000E-05 23:36:00.930 1.500E-01 0.500 F -0.122 0.094 +25° 18' 53.00" 1.000E-01 0.500 F 0.293 0.142 19.5 R 0.70 0.01 o 691 0.34 Yes Yes
2018SK3 O C K 2018-10-05.20747 1.000E-05 23:35:59.730 1.500E-01 0.500 F -0.122 0.072 +25° 18' 59.50" 1.000E-01 0.500 F 0.293 0.356 19.2 R 0.70 -0.29 o 691 0.73 Yes Yes
2018TS1 O C K 2018-10-05.21603 1.000E-05 00:25:09.270 1.500E-01 0.500 F -0.155 -0.332 +12° 44' 48.60" 1.000E-01 0.500 F 0.394 0.050 20.5 R 0.70 0.35 o 691 0.69 Yes Yes
2018TS1 O C K 2018-10-05.22371 1.000E-05 00:25:07.730 1.500E-01 0.500 F -0.155 0.284 +12° 45' 22.00" 1.000E-01 0.500 F 0.394 0.221 20.3 R 0.70 0.15 o 691 0.73 Yes Yes
2018TS1 O C K 2018-10-05.23145 1.000E-05 00:25:06.100 1.500E-01 0.500 F -0.155 -0.096 +12° 45' 55.50" 1.000E-01 0.500 F 0.394 0.239 20.5 R 0.70 0.35 o 691 0.52 Yes Yes
2018TU1 O C K 2018-10-05.36440 1.000E-05 02:48:56.080 1.500E-01 0.500 F -0.243 -0.065 +14° 20' 06.10" 1.000E-01 0.500 F 0.240 -0.086 o 691 0.22 Yes No
2018TU1 O C K 2018-10-05.37430 1.000E-05 02:48:58.310 1.500E-01 0.500 F -0.243 -0.403 +14° 20' 07.50" 1.000E-01 0.500 F 0.240 -0.452 o 691 1.23 Yes No
2018TU1 O C K 2018-10-05.38414 1.000E-05 02:49:00.590 1.500E-01 0.500 F -0.243 0.190 +14° 20' 09.50" 1.000E-01 0.500 F 0.240 -0.174 o 691 0.52 Yes No
Camarillo O C 2018-10-06.17243 1.000E-05 22:15:22.760 1.500E-01 0.500 F -0.136 -0.222 -15° 16' 45.90" 1.000E-01 0.500 F 0.199 -0.307 20.1 V 0.70 0.72 o 691 0.76 Yes Yes
2018TN1 O C K 2018-10-06.17701 1.000E-05 22:46:48.560 1.500E-01 0.500 F -0.113 -0.738 -22° 55' 21.20" 1.000E-01 0.500 F 0.168 0.146 21.7 R 0.70 0.52 o 691 1.52 Yes Yes
2018TK2 O C H 2018-10-06.18651 1.000E-05 22:58:36.490 1.500E-01 0.500 F -0.180 0.211 -22° 26' 38.00" 1.000E-01 0.500 F 0.317 0.333 20.9 R 0.70 0.49 o 691 0.80 Yes Yes
Camarillo O C 2018-10-06.18870 1.000E-05 22:15:22.020 1.500E-01 0.500 F -0.136 -0.065 -15° 16' 45.10" 1.000E-01 0.500 F 0.199 -0.192 19.7 V 0.70 0.32 o 691 0.41 Yes Yes
2018TN1 O C K 2018-10-06.19328 1.000E-05 22:46:48.400 1.500E-01 0.500 F -0.113 -0.132 -22° 54' 49.00" 1.000E-01 0.500 F 0.168 -0.296 21.0 R 0.70 -0.18 o 691 0.66 Yes Yes
2018TK2 O C H 2018-10-06.20281 1.000E-05 22:58:35.470 1.500E-01 0.500 F -0.180 0.334 -22° 26' 38.30" 1.000E-01 0.500 F 0.317 0.313 20.5 R 0.70 0.09 o 691 0.93 Yes Yes
Camarillo O C 2018-10-06.20507 1.000E-05 22:15:21.260 1.500E-01 0.500 F -0.136 -0.136 -15° 16' 43.70" 1.000E-01 0.500 F 0.199 0.500 19.4 V 0.70 0.02 o 691 1.04 Yes Yes
2018TN1 O C K 2018-10-06.20966 1.000E-05 22:46:48.240 1.500E-01 0.500 F -0.113 0.534 -22° 54' 15.20" 1.000E-01 0.500 F 0.168 0.488 21.7 R 0.70 0.52 o 691 1.47 Yes Yes
2018TK2 O C H 2018-10-06.21916 1.000E-05 22:58:34.430 1.500E-01 0.500 F -0.180 0.255 -22° 26' 38.60" 1.000E-01 0.500 F 0.317 0.193 20.5 R 0.70 0.09 o 691 0.65 Yes Yes
2008CA5 O C K 2018-10-06.22291 1.000E-05 20:39:05.990 1.500E-01 0.500 F 0.066 -0.018 -00° 17' 53.60" 1.000E-01 0.500 F 0.221 0.043 21.4 R 0.70 0.55 o 691 0.09 Yes Yes
2018NN O C K 2018-10-06.23132 1.000E-05 21:10:23.900 1.500E-01 0.500 F -0.034 0.135 +02° 50' 46.60" 1.000E-01 0.500 F 0.286 -0.361 22.1 R 0.70 0.74 o 691 0.78 Yes Yes
2018SZ2 O C K 2018-10-06.24067 1.000E-05 21:34:24.650 1.500E-01 0.500 F -0.010 -0.455 -00° 01' 08.80" 1.000E-01 0.500 F 0.343 0.102 20.6 R 0.70 0.36 o 691 0.94 Yes Yes
2008CA5 O C K 2018-10-06.24519 1.000E-05 20:39:08.330 1.500E-01 0.500 F 0.066 -0.194 -00° 17' 31.00" 1.000E-01 0.500 F 0.221 -0.158 21.4 R 0.70 0.55 o 691 0.50 Yes Yes
2018NN O C K 2018-10-06.25362 1.000E-05 21:10:25.580 1.500E-01 0.500 F -0.034 -0.140 +02° 50' 49.10" 1.000E-01 0.500 F 0.286 0.138 21.9 R 0.70 0.54 o 691 0.39 Yes Yes
2018SZ2 O C K 2018-10-06.26305 1.000E-05 21:34:31.790 1.500E-01 0.500 F -0.010 0.187 -00° 00' 41.40" 1.000E-01 0.500 F 0.343 -0.184 19.8 R 0.70 -0.44 o 691 0.53 Yes Yes
2008CA5 O C K 2018-10-06.26750 1.000E-05 20:39:10.720 1.500E-01 0.500 F 0.066 0.199 -00° 17' 07.60" 1.000E-01 0.500 F 0.221 0.430 21.5 R 0.70 0.64 o 691 0.96 Yes Yes
2018NN O C K 2018-10-06.27593 1.000E-05 21:10:27.290 1.500E-01 0.500 F -0.034 -0.113 +02° 50' 50.80" 1.000E-01 0.500 F 0.286 -0.156 21.8 R 0.70 0.44 o 691 0.39 Yes Yes
2018SZ2 O C K 2018-10-06.28525 1.000E-05 21:34:38.860 1.500E-01 0.500 F -0.010 0.223 -00° 00' 13.60" 1.000E-01 0.500 F 0.343 0.162 20.0 R 0.70 -0.24 o 691 0.55 Yes Yes
2015TW143 O C K 2018-10-06.29089 1.000E-05 23:13:13.940 1.500E-01 0.500 F -0.243 -0.437 -17° 29' 06.10" 1.000E-01 0.500 F 0.126 0.176 22.3 R 0.70 1.18 o 691 0.96 Yes Yes
2018FY1 O C H 2018-10-06.29493 1.000E-05 23:18:09.610 1.500E-01 0.500 F -0.258 -0.916 -17° 29' 50.50" 1.000E-01 0.500 F 0.214 -0.122 20.6 R 0.70 0.19 o 691 1.88 Yes Yes
2001SC170 O C H 2018-10-06.29677 1.000E-05 23:23:38.740 1.500E-01 0.500 F -0.263 -0.123 -05° 38' 30.20" 1.000E-01 0.500 F 0.235 -0.514 20.2 R 0.70 0.07 o 691 1.06 Yes Yes
2015TW143 O C K 2018-10-06.29888 1.000E-05 23:13:13.460 1.500E-01 0.500 F -0.243 0.168 -17° 29' 08.40" 1.000E-01 0.500 F 0.126 0.481 22.4 R 0.70 1.28 o 691 1.02 Yes Yes
2018FY1 O C H 2018-10-06.30292 1.000E-05 23:18:09.130 1.500E-01 0.500 F -0.258 -0.062 -17° 29' 37.70" 1.000E-01 0.500 F 0.214 0.389 20.7 R 0.70 0.29 o 691 0.82 Yes Yes
2001SC170 O C H 2018-10-06.30475 1.000E-05 23:23:38.990 1.500E-01 0.500 F -0.263 -0.109 -05° 38' 37.20" 1.000E-01 0.500 F 0.235 0.107 20.2 R 0.70 0.07 o 691 0.31 Yes Yes
2015TW143 O C K 2018-10-06.30687 1.000E-05 23:13:12.940 1.500E-01 0.500 F -0.243 0.193 -17° 29' 11.50" 1.000E-01 0.500 F 0.126 -0.019 22.0 R 0.70 0.88 o 691 0.38 Yes Yes
2018FY1 O C H 2018-10-06.31091 1.000E-05 23:18:08.620 1.500E-01 0.500 F -0.258 0.350 -17° 29' 26.00" 1.000E-01 0.500 F 0.214 -0.206 20.2 R 0.70 -0.21 o 691 0.84 Yes Yes
2001SC170 O C H 2018-10-06.31274 1.000E-05 23:23:39.240 1.500E-01 0.500 F -0.263 -0.114 -05° 38' 44.90" 1.000E-01 0.500 F 0.235 0.031 20.4 R 0.70 0.27 o 691 0.24 Yes Yes
2018TS1 O C K 2018-10-06.31636 1.000E-05 00:21:43.460 1.500E-01 0.500 F -0.164 -0.192 +14° 11' 22.60" 1.000E-01 0.500 F 0.432 0.092 20.6 R 0.70 0.62 o 691 0.43 Yes Yes
2018TV2 O C K 2018-10-06.32196 1.000E-05 00:17:50.190 1.500E-01 0.500 F -0.250 0.013 +14° 57' 20.20" 1.000E-01 0.500 F 0.471 0.148 22.2 R 0.70 0.60 o 691 0.30 Yes Yes
2018TS1 O C K 2018-10-06.32912 1.000E-05 00:21:40.190 1.500E-01 0.500 F -0.164 -0.339 +14° 12' 28.30" 1.000E-01 0.500 F 0.432 -0.396 20.4 R 0.70 0.43 o 691 1.05 Yes Yes
2018TV2 O C K 2018-10-06.33453 1.000E-05 00:17:48.240 1.500E-01 0.500 F -0.250 -0.057 +14° 57' 16.40" 1.000E-01 0.500 F 0.471 0.053 21.8 R 0.70 0.20 o 691 0.16 Yes Yes
2018TS1 O C K 2018-10-06.34170 1.000E-05 00:21:37.000 1.500E-01 0.500 F -0.164 -0.082 +14° 13' 34.00" 1.000E-01 0.500 F 0.432 0.074 20.4 R 0.70 0.43 o 691 0.22 Yes Yes
2018TV2 O C K 2018-10-06.34714 1.000E-05 00:17:46.260 1.500E-01 0.500 F -0.250 -0.487 +14° 57' 12.60" 1.000E-01 0.500 F 0.471 -0.011 21.9 R 0.70 0.30 o 691 0.99 Yes Yes
2018TT2 O C K 2018-10-06.35792 1.000E-05 01:32:23.450 1.500E-01 0.500 F -0.407 0.131 -01° 39' 56.40" 1.000E-01 0.500 F 0.199 0.163 20.5 R 0.70 -0.12 o 691 0.42 Yes Yes
2018RR8 O C H 2018-10-06.36090 1.000E-05 01:09:45.160 1.500E-01 0.500 F -0.272 -0.521 -04° 23' 01.40" 1.000E-01 0.500 F 0.299 -0.029 19.9 R 0.70 0.17 o 691 1.05 Yes Yes
2018TP2 O C H 2018-10-06.36269 1.000E-05 01:39:42.810 1.500E-01 0.500 F -0.327 0.629 +16° 35' 25.10" 1.000E-01 0.500 F 0.380 -0.030 21.1 R 0.70 0.45 o 691 1.27 Yes Yes
2018RC1 O C K 2018-10-06.36454 1.000E-05 01:25:11.130 1.500E-01 0.500 F -0.256 -0.332 -01° 34' 54.10" 1.000E-01 0.500 F 0.213 0.201 20.6 R 0.70 0.24 o 691 0.80 Yes Yes
2018TT2 O C K 2018-10-06.36935 1.000E-05 01:32:22.760 1.500E-01 0.500 F -0.407 -0.184 -01° 40' 28.70" 1.000E-01 0.500 F 0.199 0.112 20.6 R 0.70 -0.02 o 691 0.43 Yes Yes
2018RR8 O C H 2018-10-06.37234 1.000E-05 01:09:41.980 1.500E-01 0.500 F -0.272 0.223 -04° 22' 46.50" 1.000E-01 0.500 F 0.299 -0.055 19.9 R 0.70 0.17 o 691 0.46 Yes Yes
2018TP2 O C H 2018-10-06.37407 1.000E-05 01:39:43.900 1.500E-01 0.500 F -0.327 0.323 +16° 35' 42.70" 1.000E-01 0.500 F 0.380 0.149 21.1 R 0.70 0.45 o 691 0.72 Yes Yes
2018RC1 O C K 2018-10-06.37580 1.000E-05 01:25:13.040 1.500E-01 0.500 F -0.256 0.077 -01° 35' 01.10" 1.000E-01 0.500 F 0.213 0.092 20.5 R 0.70 0.14 o 691 0.25 Yes Yes
2018TT2 O C K 2018-10-06.38058 1.000E-05 01:32:22.150 1.500E-01 0.500 F -0.407 0.500 -01° 41' 00.30" 1.000E-01 0.500 F 0.199 0.205 20.5 R 0.70 -0.12 o 691 1.09 Yes Yes
2018RR8 O C H 2018-10-06.38356 1.000E-05 01:09:38.780 1.500E-01 0.500 F -0.272 -0.294 -04° 22' 31.80" 1.000E-01 0.500 F 0.299 0.005 20.0 R 0.70 0.27 o 691 0.59 Yes Yes
2018TP2 O C H 2018-10-06.38535 1.000E-05 01:39:44.980 1.500E-01 0.500 F -0.327 -0.025 +16° 36' 00.20" 1.000E-01 0.500 F 0.380 0.420 20.8 R 0.70 0.15 o 691 0.85 Yes Yes
2018RC1 O C K 2018-10-06.38709 1.000E-05 01:25:14.960 1.500E-01 0.500 F -0.256 0.375 -01° 35' 08.10" 1.000E-01 0.500 F 0.213 -0.021 20.5 R 0.70 0.14 o 691 0.78 Yes Yes
2018TQ1 O C H 2018-10-06.39693 1.000E-05 02:43:37.860 1.500E-01 0.500 F -0.206 0.164 +14° 34' 31.60" 1.000E-01 0.500 F 0.226 -0.203 20.1 R 0.70 0.62 o 691 0.53 Yes Yes
2018TR1 O C K 2018-10-06.39841 1.000E-05 03:20:49.310 1.500E-01 0.500 F -0.274 0.026 +10° 47' 18.40" 1.000E-01 0.500 F 0.364 -0.033 20.4 R 0.70 0.59 o 691 0.09 Yes Yes
2008TY3 O C K 2018-10-06.40225 1.000E-05 03:16:34.460 1.500E-01 0.500 F -0.246 0.026 +15° 37' 22.20" 1.000E-01 0.500 F 0.309 -0.159 21.8 R 0.70 0.14 o 691 0.32 Yes Yes
2018TQ1 O C H 2018-10-06.41239 1.000E-05 02:43:32.970 1.500E-01 0.500 F -0.287 0.560 +14° 36' 28.10" 1.000E-01 0.500 F 0.256 0.464 19.4 R 0.70 -0.08 o 691 1.47 Yes Yes
2018TR1 O C K 2018-10-06.41384 1.000E-05 03:21:01.180 1.500E-01 0.500 F -0.274 -0.235 +10° 47' 25.20" 1.000E-01 0.500 F 0.364 0.049 20.1 R 0.70 0.29 o 691 0.49 Yes Yes
2008TY3 O C K 2018-10-06.41765 1.000E-05 03:16:34.680 1.500E-01 0.500 F -0.246 -0.422 +15° 37' 44.40" 1.000E-01 0.500 F 0.309 0.403 o 691 1.17 Yes No
2018TQ1 O C H 2018-10-06.42774 1.000E-05 02:43:28.100 1.500E-01 0.500 F -0.287 0.491 +14° 38' 22.00" 1.000E-01 0.500 F 0.256 -0.316 19.5 R 0.70 0.02 o 691 1.19 Yes Yes
2018TR1 O C K 2018-10-06.42909 1.000E-05 03:21:12.990 1.500E-01 0.500 F -0.274 0.396 +10° 47' 32.10" 1.000E-01 0.500 F 0.364 0.446 20.2 R 0.70 0.39 o 691 1.23 Yes Yes
2018TT1 O C H 2018-10-06.48472 1.000E-05 04:44:13.410 1.500E-01 0.500 F -0.185 0.163 -19° 38' 56.00" 1.000E-01 0.500 F -0.093 0.132 18.9 R 0.70 0.24 o 691 0.42 Yes Yes
2018TT1 O C H 2018-10-06.49920 1.000E-05 04:44:14.440 1.500E-01 0.500 F -0.185 0.349 -19° 38' 29.70" 1.000E-01 0.500 F -0.093 0.174 18.7 R 0.70 0.04 o 691 0.79 Yes Yes
2018RV5 O C H 2018-10-06.50204 1.000E-05 03:51:35.220 1.500E-01 0.500 F -0.128 0.028 +21° 05' 13.60" 1.000E-01 0.500 F 0.191 0.161 18.7 R 0.70 0.18 o 691 0.33 Yes Yes
2018TT1 O C H 2018-10-06.51338 1.000E-05 04:44:15.420 1.500E-01 0.500 F -0.185 0.102 -19° 38' 03.90" 1.000E-01 0.500 F -0.093 0.195 18.8 R 0.70 0.14 o 691 0.44 Yes Yes
2018RV5 O C H 2018-10-06.51615 1.000E-05 03:51:37.210 1.500E-01 0.500 F -0.128 0.167 +21° 04' 17.10" 1.000E-01 0.500 F 0.191 -0.057 18.7 R 0.70 0.18 o 691 0.36 Yes Yes
2018RU1 O C H 2018-10-18.17145 1.000E-05 22:38:29.740 1.500E-01 0.500 F -0.092 0.005 +21° 56' 35.10" 1.000E-01 0.500 F 0.314 -0.018 20.8 R 0.70 -0.06 o 691 0.04 Yes Yes
2018RU1 O C H 2018-10-18.17839 1.000E-05 22:38:30.180 1.500E-01 0.500 F -0.092 -0.436 +21° 56' 43.90" 1.000E-01 0.500 F 0.314 0.453 21.0 R 0.70 0.14 o 691 1.29 Yes Yes
2018RU1 O C H 2018-10-18.18514 1.000E-05 22:38:30.620 1.500E-01 0.500 F -0.092 -0.700 +21° 56' 51.90" 1.000E-01 0.500 F 0.314 0.372 20.5 R 0.70 -0.36 o 691 1.63 Yes Yes
2018TC3 O C H 2018-10-18.19323 1.000E-05 00:11:15.400 1.500E-01 0.500 F -0.330 -0.231 -25° 32' 30.10" 1.000E-01 0.500 F 0.375 0.105 o 691 0.51 Yes No
2018TC3 O C H 2018-10-18.20263 1.000E-05 00:11:14.630 1.500E-01 0.500 F -0.330 0.396 -25° 32' 29.70" 1.000E-01 0.500 F 0.375 0.043 o 691 0.80 Yes No
2018TC3 O C H 2018-10-18.21189 1.000E-05 00:11:13.800 1.500E-01 0.500 F -0.330 0.064 -25° 32' 29.40" 1.000E-01 0.500 F 0.375 -0.145 o 691 0.32 Yes No
2012TT5 O C 2018-10-19.20283 1.000E-05 00:41:26.300 1.500E-01 0.500 F -0.299 -0.616 +18° 05' 38.90" 1.000E-01 0.500 F 0.124 -0.036 21.3 V 0.70 0.44 o 691 1.25 Yes Yes
2012TT5 O C 2018-10-19.20646 1.000E-05 00:41:25.930 1.500E-01 0.500 F -0.299 0.706 +18° 05' 40.30" 1.000E-01 0.500 F 0.124 -0.069 20.8 V 0.70 -0.06 o 691 1.44 Yes Yes
2012TT5 O C 2018-10-19.21010 1.000E-05 00:41:25.410 1.500E-01 0.500 F -0.299 -0.090 +18° 05' 42.10" 1.000E-01 0.500 F 0.124 0.299 20.7 V 0.70 -0.16 o 691 0.64 Yes Yes
2018TF3 O C H 2018-10-19.29116 1.000E-05 02:53:23.590 1.500E-01 0.500 F -0.405 0.015 -00° 18' 08.60" 1.000E-01 0.500 F 0.157 0.161 18.2 R 0.70 0.28 o 691 0.32 Yes Yes
2018TF3 O C H 2018-10-19.29341 1.000E-05 02:53:23.630 1.500E-01 0.500 F -0.405 -0.037 -00° 18' 11.60" 1.000E-01 0.500 F 0.157 -0.059 18.2 R 0.70 0.28 o 691 0.14 Yes Yes
2018TF3 O C H 2018-10-19.29566 1.000E-05 02:53:23.660 1.500E-01 0.500 F -0.405 -0.237 -00° 18' 14.20" 1.000E-01 0.500 F 0.157 0.122 18.1 R 0.70 0.18 o 691 0.53 Yes Yes
2018TN6 O C H 2018-10-19.32336 1.000E-05 03:31:33.880 1.500E-01 0.500 F -0.187 -0.379 +27° 28' 40.20" 1.000E-01 0.500 F 0.273 0.131 20.4 R 0.70 -0.19 o 691 0.81 Yes Yes
2018TN6 O C H 2018-10-19.32561 1.000E-05 03:31:33.850 1.500E-01 0.500 F -0.187 0.018 +27° 28' 34.40" 1.000E-01 0.500 F 0.273 0.038 21.3 R 0.70 0.71 o 691 0.09 Yes Yes
2018TN6 O C H 2018-10-19.32787 1.000E-05 03:31:33.790 1.500E-01 0.500 F -0.187 0.021 +27° 28' 28.60" 1.000E-01 0.500 F 0.273 -0.027 20.8 R 0.70 0.21 o 691 0.07 Yes Yes
2018UA O C H 2018-10-19.34492 1.000E-05 23:46:29.720 1.500E-01 0.612 F -0.090 0.039 +17° 00' 20.80" 1.000E-01 0.612 F 0.320 -0.137 17.4 R 0.70 0.07 o 691 0.24 Yes Yes
2018UA O C H 2018-10-19.34602 1.000E-05 23:46:30.810 1.500E-01 0.612 F -0.090 -0.006 +17° 00' 00.20" 1.000E-01 0.612 F 0.320 0.043 17.3 R 0.70 -0.02 o 691 0.07 Yes Yes
2018UA O C H 2018-10-19.34711 1.000E-05 23:46:31.900 1.500E-01 0.612 F -0.090 -0.163 +16° 59' 39.40" 1.000E-01 0.612 F 0.320 0.039 17.3 R 0.70 -0.01 o 691 0.29 Yes Yes
2018RJ7 O C H 2018-10-19.35633 1.000E-05 03:33:23.750 1.500E-01 0.500 F -0.168 0.182 -25° 09' 15.80" 1.000E-01 0.500 F 0.040 -0.219 18.5 R 0.70 0.54 o 691 0.58 Yes Yes
2018RJ7 O C H 2018-10-19.35754 1.000E-05 03:33:24.650 1.500E-01 0.500 F -0.168 0.249 -25° 09' 20.70" 1.000E-01 0.500 F 0.040 -0.094 18.4 R 0.70 0.44 o 691 0.55 Yes Yes
2018RJ7 O C H 2018-10-19.35876 1.000E-05 03:33:25.540 1.500E-01 0.500 F -0.168 0.079 -25° 09' 26.00" 1.000E-01 0.500 F 0.040 -0.330 18.4 R 0.70 0.44 o 691 0.69 Yes Yes
2018UA O C H 2018-10-19.37528 1.000E-05 23:47:07.440 1.500E-01 0.612 F -0.090 -0.270 +16° 49' 23.40" 1.000E-01 0.612 F 0.320 0.327 17.0 R 0.70 -0.07 o 691 0.73 Yes Yes
2018UA O C H 2018-10-19.37628 1.000E-05 23:47:09.000 1.500E-01 0.612 F -0.090 -0.138 +16° 48' 58.10" 1.000E-01 0.612 F 0.320 0.000 17.3 R 0.70 0.24 o 691 0.24 Yes Yes
2018UA O C H 2018-10-19.37728 1.000E-05 23:47:10.580 1.500E-01 0.612 F -0.090 -0.046 +16° 48' 33.10" 1.000E-01 0.612 F 0.320 0.209 17.2 R 0.70 0.15 o 691 0.36 Yes Yes
2018TT1 O C H 2018-10-19.40760 1.000E-05 05:00:19.060 1.500E-01 0.500 F -0.166 0.106 -09° 16' 12.00" 1.000E-01 0.500 F 0.007 0.085 17.5 R 0.70 -0.11 o 691 0.27 Yes Yes
2018TT1 O C H 2018-10-19.40915 1.000E-05 05:00:19.160 1.500E-01 0.500 F -0.166 0.111 -09° 16' 05.00" 1.000E-01 0.500 F 0.007 0.210 17.6 R 0.70 -0.01 o 691 0.48 Yes Yes
2018TT1 O C H 2018-10-19.41071 1.000E-05 05:00:19.250 1.500E-01 0.500 F -0.166 -0.041 -09° 15' 58.20" 1.000E-01 0.500 F 0.007 0.090 17.5 R 0.70 -0.11 o 691 0.20 Yes Yes
2018TF3 O C H 2018-10-20.23239 1.000E-05 02:53:55.970 1.500E-01 0.500 F -0.405 0.140 -00° 38' 28.90" 1.000E-01 0.500 F 0.157 0.097 18.0 R 0.70 0.23 o 691 0.34 Yes Yes
2018TF3 O C H 2018-10-20.23463 1.000E-05 02:53:56.020 1.500E-01 0.500 F -0.405 0.119 -00° 38' 32.00" 1.000E-01 0.500 F 0.157 0.051 17.9 R 0.70 0.13 o 691 0.26 Yes Yes
2018TF3 O C H 2018-10-20.23688 1.000E-05 02:53:56.070 1.500E-01 0.500 F -0.405 0.100 -00° 38' 35.10" 1.000E-01 0.500 F 0.157 0.020 17.9 R 0.70 0.13 o 691 0.20 Yes Yes
2018TT1 O C 2018-10-20.27774 1.000E-05 05:01:24.700 1.500E-01 0.500 F -0.190 -0.244 -08° 09' 36.00" 1.000E-01 0.500 F 0.060 -0.055 18.2 V 0.70 0.27 o 691 0.50 Yes Yes
2018TT1 O C 2018-10-20.27930 1.000E-05 05:01:24.810 1.500E-01 0.500 F -0.190 -0.210 -08° 09' 28.80" 1.000E-01 0.500 F 0.060 -0.228 18.3 V 0.70 0.37 o 691 0.63 Yes Yes
2018TT1 O C 2018-10-20.28086 1.000E-05 05:01:24.930 1.500E-01 0.500 F -0.190 -0.026 -08° 09' 21.20" 1.000E-01 0.500 F 0.060 -0.002 18.2 V 0.70 0.27 o 691 0.05 Yes Yes
2018UQ1 O C H 2018-10-20.30205 1.000E-05 02:37:59.110 1.500E-01 0.500 F -0.156 -0.275 +23° 04' 39.20" 1.000E-01 0.500 F 0.298 0.075 19.3 R 0.70 0.17 o 691 0.58 Yes Yes
2018UQ1 O C H 2018-10-20.30569 1.000E-05 02:37:59.300 1.500E-01 0.500 F -0.156 -0.254 +23° 04' 42.90" 1.000E-01 0.500 F 0.298 0.139 19.3 R 0.70 0.17 o 691 0.58 Yes Yes
2018UQ1 O C H 2018-10-20.30933 1.000E-05 02:37:59.520 1.500E-01 0.500 F -0.156 0.186 +23° 04' 46.40" 1.000E-01 0.500 F 0.298 0.010 19.7 R 0.70 0.57 o 691 0.37 Yes Yes
2018UJ1 O C H 2018-10-20.31395 1.000E-05 02:51:26.170 1.500E-01 0.500 F -0.294 0.193 -16° 54' 36.80" 1.000E-01 0.500 F 0.068 -0.224 17.9 R 0.70 -0.77 o 691 0.61 Yes Yes
2018UJ1 O C H 2018-10-20.31515 1.000E-05 02:51:25.940 1.500E-01 0.500 F -0.294 0.096 -16° 54' 24.70" 1.000E-01 0.500 F 0.068 -0.046 17.8 R 0.70 -0.87 o 691 0.22 Yes Yes
2018UJ1 O C H 2018-10-20.31637 1.000E-05 02:51:25.680 1.500E-01 0.500 F -0.294 -0.376 -16° 54' 12.30" 1.000E-01 0.500 F 0.068 0.230 17.9 R 0.70 -0.77 o 691 0.90 Yes Yes
2018SN O C 2018-10-20.31959 1.000E-05 02:59:53.890 1.500E-01 0.500 F -0.146 0.135 +13° 29' 36.10" 1.000E-01 0.500 F 0.259 -0.119 19.7 V 0.70 -0.20 o 691 0.36 Yes Yes
2018SN O C 2018-10-20.32184 1.000E-05 02:59:53.550 1.500E-01 0.500 F -0.146 -0.413 +13° 29' 44.40" 1.000E-01 0.500 F 0.259 0.522 19.9 V 0.70 0.00 o 691 1.35 Yes Yes
2018SN O C 2018-10-20.32409 1.000E-05 02:59:53.270 1.500E-01 0.500 F -0.146 -0.085 +13° 29' 51.30" 1.000E-01 0.500 F 0.259 -0.236 19.7 V 0.70 -0.20 o 691 0.51 Yes Yes
2018PJ22 O C H 2018-10-20.32989 1.000E-05 04:04:21.470 1.500E-01 0.500 F -0.175 -0.131 -03° 35' 00.30" 1.000E-01 0.500 F 0.174 0.053 18.6 R 0.70 -0.23 o 691 0.29 Yes Yes
2018PJ22 O C H 2018-10-20.33214 1.000E-05 04:04:21.550 1.500E-01 0.500 F -0.175 0.130 -03° 35' 05.40" 1.000E-01 0.500 F 0.174 -0.309 18.8 R 0.70 -0.03 o 691 0.68 Yes Yes
2018PJ22 O C H 2018-10-20.33439 1.000E-05 04:04:21.590 1.500E-01 0.500 F -0.175 -0.205 -03° 35' 09.90" 1.000E-01 0.500 F 0.174 -0.072 18.7 R 0.70 -0.13 o 691 0.44 Yes Yes
2001VC2 O C H 2018-10-20.33991 1.000E-05 04:18:22.040 1.500E-01 0.500 F -0.133 0.226 -23° 59' 43.10" 1.000E-01 0.500 F 0.238 0.101 19.8 R 0.70 0.36 o 691 0.50 Yes Yes
2001VC2 O C H 2018-10-20.34285 1.000E-05 04:18:21.730 1.500E-01 0.500 F -0.133 -0.201 -23° 59' 43.70" 1.000E-01 0.500 F 0.238 0.092 19.7 R 0.70 0.26 o 691 0.44 Yes Yes
2001VC2 O C H 2018-10-20.34579 1.000E-05 04:18:21.460 1.500E-01 0.500 F -0.133 -0.073 -23° 59' 44.30" 1.000E-01 0.500 F 0.238 0.078 19.5 R 0.70 0.06 o 691 0.22 Yes Yes
2018UN1 O C H 2018-10-20.35173 1.000E-05 02:26:02.370 1.500E-01 0.500 F -0.280 0.098 +00° 12' 40.40" 1.000E-01 0.500 F 0.278 -0.116 o 691 0.31 Yes No
2018UN1 O C H 2018-10-20.35398 1.000E-05 02:26:02.090 1.500E-01 0.500 F -0.280 0.021 +00° 12' 37.70" 1.000E-01 0.500 F 0.278 0.229 o 691 0.46 Yes No
2018TO1 O C K 2018-10-21.19963 1.000E-05 02:25:27.500 1.500E-01 0.500 F -0.286 -0.149 -05° 16' 02.00" 1.000E-01 0.500 F 0.113 0.014 o 691 0.30 Yes No
2018TO1 O C K 2018-10-21.21763 1.000E-05 02:25:25.020 1.500E-01 0.500 F -0.286 -0.227 -05° 15' 37.50" 1.000E-01 0.500 F 0.113 0.003 o 691 0.46 Yes No
2018TO1 O C K 2018-10-21.23562 1.000E-05 02:25:22.540 1.500E-01 0.500 F -0.286 -0.063 -05° 15' 12.70" 1.000E-01 0.500 F 0.113 0.284 o 691 0.58 Yes No
2018TF3 O C K 2018-10-21.36109 1.000E-05 02:54:34.010 1.500E-01 0.500 F -0.405 -0.101 -01° 05' 45.20" 1.000E-01 0.500 F 0.157 0.120 17.8 R 0.70 0.21 o 691 0.31 Yes Yes
2018TF3 O C 2018-10-21.36334 1.000E-05 02:54:34.050 1.500E-01 0.500 F -0.405 -0.172 -01° 05' 48.60" 1.000E-01 0.500 F 0.157 0.194 18.5 V 0.70 0.51 o 691 0.52 Yes Yes
2018TF3 O C K 2018-10-21.36560 1.000E-05 02:54:34.100 1.500E-01 0.500 F -0.405 -0.097 -01° 05' 52.50" 1.000E-01 0.500 F 0.157 -0.216 17.9 R 0.70 0.31 o 691 0.47 Yes Yes
2018TT1 O C K 2018-10-21.39269 1.000E-05 05:02:47.100 1.500E-01 0.500 F -0.227 0.277 -06° 37' 35.20" 1.000E-01 0.500 F 0.160 -0.767 17.5 R 0.70 0.08 o 691 1.65 Yes Yes
2018TT1 O C K 2018-10-21.39402 1.000E-05 05:02:47.170 1.500E-01 0.500 F -0.227 0.037 -06° 37' 28.10" 1.000E-01 0.500 F 0.160 -0.536 17.7 R 0.70 0.28 o 691 1.09 Yes Yes
2018SN O C H 2018-10-21.41044 1.000E-05 02:57:39.310 1.500E-01 0.500 F -0.177 -0.087 +14° 30' 49.20" 1.000E-01 0.500 F 0.331 0.152 20.1 R 0.70 0.63 o 691 0.35 Yes Yes
2018SN O C H 2018-10-21.41199 1.000E-05 02:57:39.100 1.500E-01 0.500 F -0.177 -0.074 +14° 30' 54.80" 1.000E-01 0.500 F 0.331 0.605 19.7 R 0.70 0.23 o 691 1.23 Yes Yes
2018SN O C H 2018-10-21.41354 1.000E-05 02:57:38.850 1.500E-01 0.500 F -0.177 -0.643 +14° 30' 59.70" 1.000E-01 0.500 F 0.331 0.360 19.7 R 0.70 0.23 o 691 1.49 Yes Yes
2018TZ5 O C K 2018-10-21.44310 1.000E-05 02:20:35.860 1.500E-01 0.500 F -0.243 -0.030 -02° 13' 42.70" 1.000E-01 0.500 F 0.152 0.318 19.5 R 0.70 0.09 o 691 0.66 Yes Yes
2018TZ5 O C K 2018-10-21.44707 1.000E-05 02:20:36.100 1.500E-01 0.500 F -0.243 0.303 -02° 13' 22.50" 1.000E-01 0.500 F 0.152 0.602 19.2 R 0.70 -0.21 o 691 1.39 Yes Yes
2018TZ5 O C K 2018-10-21.45104 1.000E-05 02:20:36.230 1.500E-01 0.500 F -0.243 -1.051 -02° 13' 03.30" 1.000E-01 0.500 F 0.152 -0.103 19.2 R 0.70 -0.21 o 691 2.14 Yes Yes
2018TP2 O C 2018-10-21.46578 1.000E-05 02:16:11.350 1.500E-01 0.500 F -0.084 -0.062 +24° 19' 48.40" 1.000E-01 0.500 F 0.209 0.278 19.9 V 0.70 -0.36 o 691 0.57 Yes Yes
2018TP2 O C 2018-10-21.46735 1.000E-05 02:16:11.590 1.500E-01 0.500 F -0.084 -0.606 +24° 19' 51.90" 1.000E-01 0.500 F 0.209 0.550 19.8 V 0.70 -0.46 o 691 1.65 Yes Yes
2018TP2 O C 2018-10-21.46891 1.000E-05 02:16:11.880 1.500E-01 0.500 F -0.084 -0.445 +24° 19' 54.60" 1.000E-01 0.500 F 0.209 0.043 19.9 V 0.70 -0.36 o 691 0.90 Yes Yes
2018KF3 O C K 2018-10-21.47483 1.000E-05 02:58:17.270 1.500E-01 0.500 F -0.281 -0.117 +16° 27' 04.80" 1.000E-01 0.500 F 0.320 0.313 19.9 R 0.70 -0.32 o 691 0.67 Yes Yes
2018KF3 O C K 2018-10-21.47949 1.000E-05 02:58:16.850 1.500E-01 0.500 F -0.281 -0.070 +16° 26' 58.60" 1.000E-01 0.500 F 0.320 0.072 20.5 R 0.70 0.28 o 691 0.20 Yes Yes
2018KF3 O C K 2018-10-21.48417 1.000E-05 02:58:16.480 1.500E-01 0.500 F -0.281 0.715 +16° 26' 52.50" 1.000E-01 0.500 F 0.320 -0.040 20.4 R 0.70 0.18 o 691 1.44 Yes Yes
2013WR43 O C K 2018-10-27.21080 1.000E-05 20:46:14.470 1.500E-01 0.500 F 0.127 0.037 +19° 20' 41.50" 1.000E-01 0.500 F 0.295 0.047 20.2 R 0.70 0.10 o 691 0.13 Yes Yes
2018RP8 O C K 2018-10-27.22306 1.000E-05 20:46:18.110 1.500E-01 0.500 F 0.114 0.091 +22° 20' 45.00" 1.000E-01 0.500 F 0.287 0.098 20.0 R 0.70 0.22 o 691 0.27 Yes Yes
2013WR43 O C K 2018-10-27.23095 1.000E-05 20:46:26.510 1.500E-01 0.500 F 0.127 0.323 +19° 21' 06.50" 1.000E-01 0.500 F 0.295 -0.093 19.9 R 0.70 -0.20 o 691 0.69 Yes Yes
2018RP8 O C K 2018-10-27.24317 1.000E-05 20:46:20.480 1.500E-01 0.500 F 0.114 -0.099 +22° 20' 18.50" 1.000E-01 0.500 F 0.287 -0.516 19.8 R 0.70 0.02 o 691 1.05 Yes Yes
2013WR43 O C K 2018-10-27.25108 1.000E-05 20:46:38.520 1.500E-01 0.500 F 0.127 -0.157 +19° 21' 31.40" 1.000E-01 0.500 F 0.295 -0.121 20.3 R 0.70 0.20 o 691 0.42 Yes Yes
2018FJ4 O C K 2018-10-27.26989 1.000E-05 22:41:26.230 1.500E-01 0.500 F -0.014 -0.261 -05° 55' 28.10" 1.000E-01 0.500 F 0.275 0.169 20.1 R 0.70 0.86 o 691 0.63 Yes Yes
2018FJ4 O C K 2018-10-27.28181 1.000E-05 22:41:30.810 1.500E-01 0.500 F -0.014 0.058 -05° 55' 06.30" 1.000E-01 0.500 F 0.275 0.369 20.1 R 0.70 0.85 o 691 0.75 Yes Yes
2018SK3 O C 2018-10-27.30614 1.000E-05 21:58:57.930 1.500E-01 0.500 F 0.116 -0.304 +30° 47' 07.10" 1.000E-01 0.500 F 0.368 0.610 20.1 V 0.70 0.13 o 691 1.37 Yes Yes
2018SK3 O C 2018-10-27.31019 1.000E-05 21:58:56.880 1.500E-01 0.500 F 0.116 -0.418 +30° 47' 08.40" 1.000E-01 0.500 F 0.368 0.188 20.6 V 0.70 0.63 o 691 0.92 Yes Yes
2018SK3 O C 2018-10-27.32101 1.000E-05 21:58:54.070 1.500E-01 0.500 F 0.116 -0.824 +30° 47' 12.80" 1.000E-01 0.500 F 0.368 -0.002 20.9 V 0.70 0.93 o 691 1.65 Yes Yes
2018UM1 O C K 2018-10-27.34488 1.000E-05 23:35:40.050 1.500E-01 0.500 F -0.184 -0.116 +17° 56' 58.30" 1.000E-01 0.500 F 0.294 -0.100 20.0 R 0.70 0.56 o 691 0.31 Yes Yes
2018TS O C K 2018-10-27.35200 1.000E-05 00:36:29.420 1.500E-01 0.500 F -0.360 0.283 -01° 09' 48.10" 1.000E-01 0.500 F 0.258 0.085 20.1 R 0.70 0.05 o 691 0.59 Yes Yes
2018TG6 O C K 2018-10-27.35602 1.000E-05 00:54:28.290 1.500E-01 0.500 F -0.204 0.534 -03° 31' 21.00" 1.000E-01 0.500 F 0.068 0.235 20.5 R 0.70 0.28 o 691 1.17 Yes Yes
2018UM1 O C K 2018-10-27.36140 1.000E-05 23:35:45.290 1.500E-01 0.500 F -0.184 0.041 +17° 56' 32.60" 1.000E-01 0.500 F 0.294 -0.284 20.1 R 0.70 0.65 o 691 0.58 Yes Yes
2013UG1 O C H 2018-10-27.36640 1.000E-05 00:12:34.980 1.500E-01 0.500 F -0.096 -0.012 +23° 49' 10.20" 1.000E-01 0.500 F 0.325 -0.156 18.0 R 0.70 0.18 o 691 0.32 Yes Yes
2018TS O C K 2018-10-27.36838 1.000E-05 00:36:29.600 1.500E-01 0.500 F -0.360 0.140 -01° 09' 45.60" 1.000E-01 0.500 F 0.258 -0.210 20.4 R 0.70 0.35 o 691 0.51 Yes Yes
2018TG6 O C K 2018-10-27.37239 1.000E-05 00:54:23.910 1.500E-01 0.500 F -0.204 0.504 -03° 31' 10.90" 1.000E-01 0.500 F 0.068 -0.295 20.3 R 0.70 0.08 o 691 1.17 Yes Yes
2018UM1 O C K 2018-10-27.37778 1.000E-05 23:35:50.540 1.500E-01 0.500 F -0.184 0.258 +17° 56' 07.40" 1.000E-01 0.500 F 0.294 -0.064 19.6 R 0.70 0.15 o 691 0.53 Yes Yes
2013UG1 O C H 2018-10-27.38278 1.000E-05 00:12:27.140 1.500E-01 0.500 F -0.096 0.439 +23° 48' 11.80" 1.000E-01 0.500 F 0.325 0.019 18.2 R 0.70 0.37 o 691 0.89 Yes Yes
2018TS O C K 2018-10-27.38477 1.000E-05 00:36:29.820 1.500E-01 0.500 F -0.360 0.284 -01° 09' 42.50" 1.000E-01 0.500 F 0.258 0.079 20.0 R 0.70 -0.05 o 691 0.59 Yes Yes
2018TG6 O C K 2018-10-27.38879 1.000E-05 00:54:19.650 1.500E-01 0.500 F -0.204 0.420 -03° 31' 00.00" 1.000E-01 0.500 F 0.068 -0.188 20.5 R 0.70 0.28 o 691 0.92 Yes Yes
2018LZ5 O C H 2018-10-27.39740 1.000E-05 01:55:08.620 1.500E-01 0.500 F -0.274 0.392 -08° 30' 09.10" 1.000E-01 0.500 F 0.231 0.003 19.4 R 0.70 -0.31 o 691 0.79 Yes Yes
2015TL178 O C 2018-10-27.40206 1.000E-05 02:25:20.540 1.500E-01 0.500 F -0.206 -0.264 -18° 43' 34.00" 1.000E-01 0.500 F 0.114 -0.197 18.5 V 0.70 -0.20 o 691 0.67 Yes Yes
2018LZ5 O C H 2018-10-27.40914 1.000E-05 01:55:08.410 1.500E-01 0.500 F -0.274 0.201 -08° 30' 11.30" 1.000E-01 0.500 F 0.231 0.077 19.6 R 0.70 -0.11 o 691 0.43 Yes Yes
2015TL178 O C 2018-10-27.41380 1.000E-05 02:25:19.330 1.500E-01 0.500 F -0.206 -0.079 -18° 44' 38.40" 1.000E-01 0.500 F 0.114 0.109 18.9 V 0.70 0.20 o 691 0.27 Yes Yes
2018LZ5 O C H 2018-10-27.42089 1.000E-05 01:55:08.210 1.500E-01 0.500 F -0.274 0.100 -08° 30' 13.20" 1.000E-01 0.500 F 0.231 0.438 19.8 R 0.70 0.09 o 691 0.90 Yes Yes
2015TL178 O C 2018-10-27.42555 1.000E-05 02:25:18.100 1.500E-01 0.500 F -0.206 -0.292 -18° 45' 43.70" 1.000E-01 0.500 F 0.114 -0.409 19.0 V 0.70 0.30 o 691 1.03 Yes Yes
2018UN1 O C 2018-10-27.43115 1.000E-05 02:09:38.920 1.500E-01 0.500 F -0.422 -0.114 -02° 45' 06.50" 1.000E-01 0.500 F 0.177 -0.249 19.7 V 0.70 0.12 o 691 0.55 Yes Yes
2018UN1 O C 2018-10-27.44307 1.000E-05 02:09:36.950 1.500E-01 0.500 F -0.422 -0.060 -02° 45' 26.50" 1.000E-01 0.500 F 0.177 -0.462 19.9 V 0.70 0.32 o 691 0.94 Yes Yes
2018UN1 O C 2018-10-27.45458 1.000E-05 02:09:35.040 1.500E-01 0.500 F -0.422 -0.167 -02° 45' 45.20" 1.000E-01 0.500 F 0.177 -0.052 20.1 V 0.70 0.52 o 691 0.35 Yes Yes
2016OP5 O C K 2018-10-27.50044 1.000E-05 09:41:01.670 1.500E-01 0.500 F 0.166 0.982 -13° 24' 33.00" 1.000E-01 0.500 F -0.012 -0.356 o 691 2.10 Yes No
2016OP5 O C K 2018-10-27.50802 1.000E-05 09:41:00.800 1.500E-01 0.500 F 0.166 -0.064 -13° 24' 00.00" 1.000E-01 0.500 F -0.012 -0.134 o 691 0.30 Yes No
2016OP5 O C K 2018-10-27.51562 1.000E-05 09:41:00.030 1.500E-01 0.500 F 0.166 0.432 -13° 23' 26.40" 1.000E-01 0.500 F -0.012 0.591 o 691 1.48 Yes No
2018FJ4 O C 2018-10-28.23976 1.000E-05 22:47:40.000 1.500E-01 0.500 F -0.067 -0.113 -05° 26' 54.30" 1.000E-01 0.500 F 0.294 -0.054 19.5 V 0.70 -0.19 o 691 0.25 Yes Yes
2018FJ4 O C 2018-10-28.24366 1.000E-05 22:47:41.410 1.500E-01 0.500 F -0.067 -0.212 -05° 26' 47.50" 1.000E-01 0.500 F 0.294 -0.076 19.5 V 0.70 -0.19 o 691 0.45 Yes Yes
2018FJ4 O C 2018-10-28.24756 1.000E-05 22:47:42.830 1.500E-01 0.500 F -0.067 -0.169 -05° 26' 40.60" 1.000E-01 0.500 F 0.294 0.002 19.5 V 0.70 -0.19 o 691 0.34 Yes Yes
2018SK3 O C 2018-10-28.25716 1.000E-05 21:54:57.650 1.500E-01 0.500 F 0.110 -0.092 +30° 54' 12.30" 1.000E-01 0.500 F 0.358 -0.053 19.9 V 0.70 -0.08 o 691 0.21 Yes Yes
2013WR43 O C K 2018-10-28.26146 1.000E-05 20:56:48.930 1.500E-01 0.500 F -0.004 -0.197 +19° 42' 21.30" 1.000E-01 0.500 F 0.273 0.038 19.9 R 0.70 -0.19 o 691 0.41 Yes Yes
2018SK3 O C 2018-10-28.26626 1.000E-05 21:54:55.320 1.500E-01 0.500 F 0.110 -0.207 +30° 54' 15.30" 1.000E-01 0.500 F 0.358 -0.686 20.1 V 0.70 0.12 o 691 1.43 Yes Yes
2013WR43 O C K 2018-10-28.27055 1.000E-05 20:56:54.320 1.500E-01 0.500 F -0.004 -0.184 +19° 42' 31.10" 1.000E-01 0.500 F 0.273 -0.004 20.2 R 0.70 0.11 o 691 0.38 Yes Yes
2018SK3 O C 2018-10-28.27535 1.000E-05 21:54:53.020 1.500E-01 0.500 F 0.110 -0.006 +30° 54' 19.90" 1.000E-01 0.500 F 0.358 0.302 20.1 V 0.70 0.12 o 691 0.61 Yes Yes

[1-200] [201-400] [401-600] [601-800] [801-1000] [1001-1200] [1201-1400] [1401-1600] [1601-1800] [1801-2000] [2001-2200] [2201-2400] [2401-2600] [2601-2800] [2801-3000] [3001-3200] [3201-3400] [3401-3600] [3601-3800] [3801-4000] [4001-4200] [4201-4400] [4401-4600] [4601-4800] [4801-5000] [5001-5200] [5201-5400] [5401-5600] [5601-5800] [5801-6000] [6001-6200] [6201-6400] [6401-6600] [6601-6800] [6801-7000] [7001-7200] [7201-7400] [7401-7600] [7601-7800] [7801-8000] [8001-8200] [8201-8400] [8401-8600] [8601-8800] [8801-9000] [9001-9200] [9201-9400] [9401-9600] [9601-9800] [9801-10000] [10001-10200] [10201-10400] [10401-10600] [10601-10800] [10801-11000] [11001-11200] [11201-11400] [11401-11600] [11601-11800] [11801-12000] [12001-12200] [12201-12400] [12401-12600] [12601-12800] [12801-13000] [13001-13200] [13201-13400] [13401-13600] [13601-13800] [13801-14000] [14001-14200] [14201-14400] [14401-14600] [14601-14800] [14801-15000] [15001-15200] [15201-15400] [15401-15600] [15601-15800] [15801-16000] [16001-16200] [16201-16400] [16401-16600] [16601-16800] [16801-17000] [17001-17200] [17201-17400] [17401-17600] [17601-17800] [17801-18000] [18001-18200] [18201-18400] [18401-18600] [18601-18800] [18801-19000] [19001-19200] [19201-19400] [19401-19600] [19601-19800] [19801-20000] [20001-20200] [20201-20400] [20401-20600] [20601-20800] [20801-21000] [21001-21200] [21201-21400] [21401-21600] [21601-21800] [21801-22000] [22001-22200] [22201-22400] [22401-22600] [22601-22800] [22801-23000] [23001-23200] [23201-23400] [23401-23600] [23601-23800] [23801-24000] [24001-24200] [24201-24400] [24401-24600] [24601-24800] [24801-25000] [25001-25200] [25201-25400] [25401-25600] [25601-25800] [25801-26000] [26001-26200] [26201-26400] [26401-26600] [26601-26800] [26801-27000] [27001-27200] [27201-27400] [27401-27600] [27601-27800] [27801-28000] [28001-28200] [28201-28400] [28401-28600] [28601-28800] [28801-29000] [29001-29200] [29201-29400] [29401-29600] [29601-29800] [29801-30000] [30001-30200] [30201-30400] [30401-30600] [30601-30800] [30801-31000] [31001-31200] [31201-31400] [31401-31600] [31601-31800] [31801-32000] [32001-32200] [32201-32400] [32401-32600] [32601-32800] [32801-33000] [33001-33200] [33201-33400] [33401-33600] [33601-33800] [33801-34000] [34001-34200] [34201-34400] [34401-34600] [34601-34800] [34801-35000] [35001-35200] [35201-35400] [35401-35600] [35601-35800] [35801-36000] [36001-36200] [36201-36400] [36401-36600] [36601-36800] [36801-37000] [37001-37200] [37201-37400] [37401-37600] [37601-37800] [37801-38000] [38001-38200] [38201-38400] [38401-38600] [38601-38800] [38801-39000] [39001-39200] [39201-39400] [39401-39600] [39601-39800] [39801-40000] [40001-40200] [40201-40400] [40401-40600] [40601-40800] [40801-41000] [41001-41200] [41201-41400] [41401-41600] [41601-41800] [41801-42000] [42001-42200] [42201-42400] [42401-42600] [42601-42800] [42801-43000] [43001-43200] [43201-43400] [43401-43600] [43601-43800] [43801-44000] [44001-44200] [44201-44400] [44401-44600] [44601-44800] [44801-45000] [45001-45200] [45201-45400] [45401-45600] [45601-45800] [45801-46000] [46001-46200] [46201-46400] [46401-46600] [46601-46800] [46801-47000] [47001-47200] [47201-47400] [47401-47600] [47601-47800] [47801-48000] [48001-48200] [48201-48400] [48401-48600] [48601-48800] [48801-49000] [49001-49200] [49201-49400] [49401-49600] [49601-49800] [49801-50000] [50001-50200] [50201-50388]